sensor_id;sensor_type;location;lat;lon;timestamp;P1;durP1;ratioP1;P2;durP2;ratioP2
16969;SDS011;8601;48.718;8.992;2023-02-28T00:02:02;3.40;;;3.10;;
16969;SDS011;8601;48.718;8.992;2023-02-28T00:04:29;4.73;;;3.20;;
16969;SDS011;8601;48.718;8.992;2023-02-28T00:06:58;3.37;;;3.07;;
16969;SDS011;8601;48.718;8.992;2023-02-28T00:09:24;3.93;;;3.53;;
16969;SDS011;8601;48.718;8.992;2023-02-28T00:11:51;3.77;;;3.47;;
16969;SDS011;8601;48.718;8.992;2023-02-28T00:14:19;3.43;;;3.07;;
16969;SDS011;8601;48.718;8.992;2023-02-28T00:16:47;4.03;;;3.47;;
16969;SDS011;8601;48.718;8.992;2023-02-28T00:19:13;3.60;;;2.93;;
16969;SDS011;8601;48.718;8.992;2023-02-28T00:21:41;3.30;;;3.07;;
16969;SDS011;8601;48.718;8.992;2023-02-28T00:24:10;4.87;;;3.50;;
16969;SDS011;8601;48.718;8.992;2023-02-28T00:26:37;4.00;;;3.13;;
16969;SDS011;8601;48.718;8.992;2023-02-28T00:31:54;3.80;;;3.10;;
16969;SDS011;8601;48.718;8.992;2023-02-28T00:34:20;3.37;;;3.07;;
16969;SDS011;8601;48.718;8.992;2023-02-28T00:36:48;3.50;;;3.20;;
16969;SDS011;8601;48.718;8.992;2023-02-28T00:39:16;3.40;;;3.10;;
16969;SDS011;8601;48.718;8.992;2023-02-28T00:41:43;3.43;;;3.03;;
16969;SDS011;8601;48.718;8.992;2023-02-28T00:44:10;3.63;;;3.23;;
16969;SDS011;8601;48.718;8.992;2023-02-28T00:49:41;3.77;;;3.40;;
16969;SDS011;8601;48.718;8.992;2023-02-28T00:52:08;3.40;;;3.10;;
16969;SDS011;8601;48.718;8.992;2023-02-28T00:54:37;3.30;;;3.00;;
16969;SDS011;8601;48.718;8.992;2023-02-28T00:57:04;3.40;;;2.97;;
16969;SDS011;8601;48.718;8.992;2023-02-28T00:59:31;3.33;;;3.03;;
16969;SDS011;8601;48.718;8.992;2023-02-28T01:01:58;3.60;;;3.30;;
16969;SDS011;8601;48.718;8.992;2023-02-28T01:04:25;3.73;;;3.40;;
16969;SDS011;8601;48.718;8.992;2023-02-28T01:07:08;3.40;;;3.10;;
16969;SDS011;8601;48.718;8.992;2023-02-28T01:09:38;3.60;;;3.30;;
16969;SDS011;8601;48.718;8.992;2023-02-28T01:12:06;3.63;;;3.33;;
16969;SDS011;8601;48.718;8.992;2023-02-28T01:14:33;4.10;;;3.40;;
16969;SDS011;8601;48.718;8.992;2023-02-28T01:17:01;4.23;;;3.30;;
16969;SDS011;8601;48.718;8.992;2023-02-28T01:19:28;3.47;;;3.17;;
16969;SDS011;8601;48.718;8.992;2023-02-28T01:21:55;3.73;;;3.40;;
16969;SDS011;8601;48.718;8.992;2023-02-28T01:27:20;3.90;;;3.50;;
16969;SDS011;8601;48.718;8.992;2023-02-28T01:29:48;4.20;;;3.80;;
16969;SDS011;8601;48.718;8.992;2023-02-28T01:32:16;3.63;;;3.33;;
16969;SDS011;8601;48.718;8.992;2023-02-28T01:34:43;4.07;;;3.60;;
16969;SDS011;8601;48.718;8.992;2023-02-28T01:37:10;3.93;;;3.50;;
16969;SDS011;8601;48.718;8.992;2023-02-28T01:39:37;3.60;;;3.30;;
16969;SDS011;8601;48.718;8.992;2023-02-28T01:42:05;4.00;;;3.63;;
16969;SDS011;8601;48.718;8.992;2023-02-28T01:47:25;4.03;;;3.63;;
16969;SDS011;8601;48.718;8.992;2023-02-28T01:49:56;4.07;;;3.20;;
16969;SDS011;8601;48.718;8.992;2023-02-28T01:52:24;4.63;;;3.50;;
16969;SDS011;8601;48.718;8.992;2023-02-28T01:54:53;7.30;;;3.80;;
16969;SDS011;8601;48.718;8.992;2023-02-28T01:57:24;4.97;;;3.50;;
16969;SDS011;8601;48.718;8.992;2023-02-28T01:59:56;3.93;;;3.40;;
16969;SDS011;8601;48.718;8.992;2023-02-28T02:02:25;3.77;;;3.37;;
16969;SDS011;8601;48.718;8.992;2023-02-28T02:04:54;4.30;;;3.77;;
16969;SDS011;8601;48.718;8.992;2023-02-28T02:07:23;4.53;;;3.90;;
16969;SDS011;8601;48.718;8.992;2023-02-28T02:09:58;4.43;;;4.03;;
16969;SDS011;8601;48.718;8.992;2023-02-28T02:12:31;5.40;;;3.70;;
16969;SDS011;8601;48.718;8.992;2023-02-28T02:15:12;4.33;;;3.93;;
16969;SDS011;8601;48.718;8.992;2023-02-28T02:17:44;4.77;;;3.73;;
16969;SDS011;8601;48.718;8.992;2023-02-28T02:23:46;5.00;;;4.00;;
16969;SDS011;8601;48.718;8.992;2023-02-28T02:26:52;5.63;;;4.20;;
16969;SDS011;8601;48.718;8.992;2023-02-28T02:32:44;5.73;;;4.60;;
16969;SDS011;8601;48.718;8.992;2023-02-28T02:35:32;5.40;;;4.03;;
16969;SDS011;8601;48.718;8.992;2023-02-28T02:38:07;7.33;;;4.77;;
16969;SDS011;8601;48.718;8.992;2023-02-28T02:40:38;4.67;;;4.23;;
16969;SDS011;8601;48.718;8.992;2023-02-28T02:43:11;5.43;;;3.93;;
16969;SDS011;8601;48.718;8.992;2023-02-28T02:45:44;4.60;;;4.20;;
16969;SDS011;8601;48.718;8.992;2023-02-28T02:48:16;5.33;;;4.83;;
16969;SDS011;8601;48.718;8.992;2023-02-28T02:50:48;5.17;;;4.30;;
16969;SDS011;8601;48.718;8.992;2023-02-28T02:53:18;5.63;;;5.13;;
16969;SDS011;8601;48.718;8.992;2023-02-28T02:55:54;6.13;;;4.60;;
16969;SDS011;8601;48.718;8.992;2023-02-28T02:58:33;4.57;;;4.20;;
16969;SDS011;8601;48.718;8.992;2023-02-28T03:01:07;5.30;;;4.80;;
16969;SDS011;8601;48.718;8.992;2023-02-28T03:03:38;4.97;;;4.57;;
16969;SDS011;8601;48.718;8.992;2023-02-28T03:06:07;4.60;;;4.30;;
16969;SDS011;8601;48.718;8.992;2023-02-28T03:08:35;5.33;;;4.83;;
16969;SDS011;8601;48.718;8.992;2023-02-28T03:11:04;5.40;;;4.90;;
16969;SDS011;8601;48.718;8.992;2023-02-28T03:22:19;4.97;;;4.57;;
16969;SDS011;8601;48.718;8.992;2023-02-28T03:25:20;5.77;;;4.50;;
16969;SDS011;8601;48.718;8.992;2023-02-28T03:27:54;5.67;;;4.63;;
16969;SDS011;8601;48.718;8.992;2023-02-28T03:30:27;5.27;;;4.77;;
16969;SDS011;8601;48.718;8.992;2023-02-28T03:33:03;5.27;;;4.77;;
16969;SDS011;8601;48.718;8.992;2023-02-28T03:35:34;4.87;;;4.30;;
16969;SDS011;8601;48.718;8.992;2023-02-28T03:38:07;5.27;;;4.77;;
16969;SDS011;8601;48.718;8.992;2023-02-28T03:40:39;5.70;;;5.07;;
16969;SDS011;8601;48.718;8.992;2023-02-28T03:43:12;6.87;;;4.90;;
16969;SDS011;8601;48.718;8.992;2023-02-28T03:45:43;5.10;;;4.60;;
16969;SDS011;8601;48.718;8.992;2023-02-28T03:51:10;5.50;;;5.00;;
16969;SDS011;8601;48.718;8.992;2023-02-28T03:53:44;5.53;;;5.03;;
16969;SDS011;8601;48.718;8.992;2023-02-28T03:56:14;7.27;;;5.87;;
16969;SDS011;8601;48.718;8.992;2023-02-28T03:58:45;5.67;;;5.17;;
16969;SDS011;8601;48.718;8.992;2023-02-28T04:01:19;6.40;;;5.43;;
16969;SDS011;8601;48.718;8.992;2023-02-28T04:03:49;5.87;;;5.30;;
16969;SDS011;8601;48.718;8.992;2023-02-28T04:06:18;6.50;;;5.27;;
16969;SDS011;8601;48.718;8.992;2023-02-28T04:08:48;5.03;;;4.53;;
16969;SDS011;8601;48.718;8.992;2023-02-28T04:14:12;5.53;;;4.67;;
16969;SDS011;8601;48.718;8.992;2023-02-28T04:16:41;7.50;;;5.27;;
16969;SDS011;8601;48.718;8.992;2023-02-28T04:19:08;7.20;;;5.77;;
16969;SDS011;8601;48.718;8.992;2023-02-28T04:21:37;5.83;;;5.23;;
16969;SDS011;8601;48.718;8.992;2023-02-28T04:24:07;6.23;;;5.63;;
16969;SDS011;8601;48.718;8.992;2023-02-28T04:29:10;5.37;;;4.80;;
16969;SDS011;8601;48.718;8.992;2023-02-28T04:31:38;6.17;;;5.57;;
16969;SDS011;8601;48.718;8.992;2023-02-28T04:34:05;7.53;;;5.07;;
16969;SDS011;8601;48.718;8.992;2023-02-28T04:39:28;6.73;;;5.67;;
16969;SDS011;8601;48.718;8.992;2023-02-28T04:42:10;6.10;;;5.50;;
16969;SDS011;8601;48.718;8.992;2023-02-28T04:47:24;6.60;;;5.90;;
16969;SDS011;8601;48.718;8.992;2023-02-28T04:49:51;6.30;;;5.60;;
16969;SDS011;8601;48.718;8.992;2023-02-28T04:52:23;6.27;;;5.63;;
16969;SDS011;8601;48.718;8.992;2023-02-28T04:54:52;6.00;;;5.40;;
16969;SDS011;8601;48.718;8.992;2023-02-28T04:57:19;6.07;;;5.47;;
16969;SDS011;8601;48.718;8.992;2023-02-28T04:59:45;7.23;;;5.80;;
16969;SDS011;8601;48.718;8.992;2023-02-28T05:02:12;6.60;;;6.00;;
16969;SDS011;8601;48.718;8.992;2023-02-28T05:04:39;6.67;;;5.53;;
16969;SDS011;8601;48.718;8.992;2023-02-28T05:07:06;7.50;;;5.63;;
16969;SDS011;8601;48.718;8.992;2023-02-28T05:09:34;6.50;;;5.90;;
16969;SDS011;8601;48.718;8.992;2023-02-28T05:12:03;5.43;;;4.93;;
16969;SDS011;8601;48.718;8.992;2023-02-28T05:14:30;7.20;;;5.83;;
16969;SDS011;8601;48.718;8.992;2023-02-28T05:16:57;6.63;;;5.40;;
16969;SDS011;8601;48.718;8.992;2023-02-28T05:19:24;6.90;;;5.90;;
16969;SDS011;8601;48.718;8.992;2023-02-28T05:21:51;6.27;;;5.67;;
16969;SDS011;8601;48.718;8.992;2023-02-28T05:24:22;5.50;;;5.00;;
16969;SDS011;8601;48.718;8.992;2023-02-28T05:26:50;6.90;;;6.20;;
16969;SDS011;8601;48.718;8.992;2023-02-28T05:29:20;7.23;;;6.53;;
16969;SDS011;8601;48.718;8.992;2023-02-28T05:31:47;6.60;;;6.00;;
16969;SDS011;8601;48.718;8.992;2023-02-28T05:34:14;6.07;;;5.47;;
16969;SDS011;8601;48.718;8.992;2023-02-28T05:37:02;6.53;;;5.93;;
16969;SDS011;8601;48.718;8.992;2023-02-28T05:42:27;6.90;;;5.87;;
16969;SDS011;8601;48.718;8.992;2023-02-28T05:44:56;7.17;;;6.47;;
16969;SDS011;8601;48.718;8.992;2023-02-28T05:47:25;8.00;;;6.63;;
16969;SDS011;8601;48.718;8.992;2023-02-28T05:49:51;7.27;;;6.60;;
16969;SDS011;8601;48.718;8.992;2023-02-28T05:52:18;7.27;;;6.53;;
16969;SDS011;8601;48.718;8.992;2023-02-28T05:54:45;7.87;;;6.87;;
16969;SDS011;8601;48.718;8.992;2023-02-28T05:57:12;7.87;;;6.70;;
16969;SDS011;8601;48.718;8.992;2023-02-28T05:59:39;10.57;;;6.93;;
16969;SDS011;8601;48.718;8.992;2023-02-28T06:02:09;8.03;;;6.80;;
16969;SDS011;8601;48.718;8.992;2023-02-28T06:04:39;8.77;;;6.83;;
16969;SDS011;8601;48.718;8.992;2023-02-28T06:07:06;7.60;;;6.80;;
16969;SDS011;8601;48.718;8.992;2023-02-28T06:09:33;8.50;;;6.47;;
16969;SDS011;8601;48.718;8.992;2023-02-28T06:12:01;8.23;;;6.57;;
16969;SDS011;8601;48.718;8.992;2023-02-28T06:14:31;7.97;;;6.63;;
16969;SDS011;8601;48.718;8.992;2023-02-28T06:19:34;8.83;;;6.57;;
16969;SDS011;8601;48.718;8.992;2023-02-28T06:22:19;8.17;;;7.37;;
16969;SDS011;8601;48.718;8.992;2023-02-28T06:25:07;10.17;;;6.77;;
16969;SDS011;8601;48.718;8.992;2023-02-28T06:30:23;7.43;;;6.73;;
16969;SDS011;8601;48.718;8.992;2023-02-28T06:32:53;9.07;;;7.27;;
16969;SDS011;8601;48.718;8.992;2023-02-28T06:35:22;7.60;;;6.73;;
16969;SDS011;8601;48.718;8.992;2023-02-28T06:37:54;7.70;;;6.90;;
16969;SDS011;8601;48.718;8.992;2023-02-28T06:40:21;9.17;;;7.13;;
16969;SDS011;8601;48.718;8.992;2023-02-28T06:42:48;9.17;;;8.10;;
16969;SDS011;8601;48.718;8.992;2023-02-28T06:45:15;9.17;;;7.90;;
16969;SDS011;8601;48.718;8.992;2023-02-28T06:47:43;8.67;;;7.77;;
16969;SDS011;8601;48.718;8.992;2023-02-28T06:50:10;9.03;;;7.03;;
16969;SDS011;8601;48.718;8.992;2023-02-28T06:52:40;11.63;;;8.27;;
16969;SDS011;8601;48.718;8.992;2023-02-28T06:55:10;8.70;;;7.30;;
16969;SDS011;8601;48.718;8.992;2023-02-28T06:57:37;8.17;;;6.83;;
16969;SDS011;8601;48.718;8.992;2023-02-28T07:00:05;8.30;;;7.17;;
16969;SDS011;8601;48.718;8.992;2023-02-28T07:02:33;10.90;;;8.03;;
16969;SDS011;8601;48.718;8.992;2023-02-28T07:05:01;8.47;;;6.87;;
16969;SDS011;8601;48.718;8.992;2023-02-28T07:07:28;9.80;;;7.17;;
16969;SDS011;8601;48.718;8.992;2023-02-28T07:09:56;9.40;;;8.00;;
16969;SDS011;8601;48.718;8.992;2023-02-28T07:12:23;8.67;;;6.93;;
16969;SDS011;8601;48.718;8.992;2023-02-28T07:14:50;9.73;;;7.13;;
16969;SDS011;8601;48.718;8.992;2023-02-28T07:17:17;9.50;;;7.73;;
16969;SDS011;8601;48.718;8.992;2023-02-28T07:19:44;8.20;;;7.20;;
16969;SDS011;8601;48.718;8.992;2023-02-28T07:22:11;7.97;;;7.17;;
16969;SDS011;8601;48.718;8.992;2023-02-28T07:24:38;8.27;;;7.33;;
16969;SDS011;8601;48.718;8.992;2023-02-28T07:27:06;9.27;;;7.50;;
16969;SDS011;8601;48.718;8.992;2023-02-28T07:29:33;8.17;;;7.30;;
16969;SDS011;8601;48.718;8.992;2023-02-28T07:32:00;11.37;;;7.53;;
16969;SDS011;8601;48.718;8.992;2023-02-28T07:34:33;10.50;;;7.77;;
16969;SDS011;8601;48.718;8.992;2023-02-28T07:37:00;8.50;;;7.40;;
16969;SDS011;8601;48.718;8.992;2023-02-28T07:39:28;7.90;;;7.03;;
16969;SDS011;8601;48.718;8.992;2023-02-28T07:41:56;10.80;;;8.17;;
16969;SDS011;8601;48.718;8.992;2023-02-28T07:44:26;9.40;;;8.43;;
16969;SDS011;8601;48.718;8.992;2023-02-28T07:46:53;8.20;;;6.97;;
16969;SDS011;8601;48.718;8.992;2023-02-28T07:49:20;9.13;;;7.63;;
16969;SDS011;8601;48.718;8.992;2023-02-28T07:51:46;9.27;;;7.30;;
16969;SDS011;8601;48.718;8.992;2023-02-28T07:54:13;8.70;;;7.73;;
16969;SDS011;8601;48.718;8.992;2023-02-28T07:56:40;9.33;;;7.23;;
16969;SDS011;8601;48.718;8.992;2023-02-28T07:59:07;9.07;;;8.03;;
16969;SDS011;8601;48.718;8.992;2023-02-28T08:01:35;10.13;;;8.37;;
16969;SDS011;8601;48.718;8.992;2023-02-28T08:04:03;9.07;;;8.20;;
16969;SDS011;8601;48.718;8.992;2023-02-28T08:06:30;11.37;;;8.73;;
16969;SDS011;8601;48.718;8.992;2023-02-28T08:08:56;8.70;;;7.80;;
16969;SDS011;8601;48.718;8.992;2023-02-28T08:11:23;10.27;;;8.70;;
16969;SDS011;8601;48.718;8.992;2023-02-28T08:13:50;11.20;;;8.87;;
16969;SDS011;8601;48.718;8.992;2023-02-28T08:16:18;9.57;;;8.27;;
16969;SDS011;8601;48.718;8.992;2023-02-28T08:18:48;10.60;;;8.17;;
16969;SDS011;8601;48.718;8.992;2023-02-28T08:21:15;10.53;;;8.50;;
16969;SDS011;8601;48.718;8.992;2023-02-28T08:23:51;9.10;;;8.00;;
16969;SDS011;8601;48.718;8.992;2023-02-28T08:26:18;10.73;;;7.60;;
16969;SDS011;8601;48.718;8.992;2023-02-28T08:28:45;9.40;;;8.03;;
16969;SDS011;8601;48.718;8.992;2023-02-28T08:31:13;10.27;;;8.27;;
16969;SDS011;8601;48.718;8.992;2023-02-28T08:33:41;9.63;;;8.63;;
16969;SDS011;8601;48.718;8.992;2023-02-28T08:36:11;11.97;;;8.83;;
16969;SDS011;8601;48.718;8.992;2023-02-28T08:38:38;10.47;;;9.27;;
16969;SDS011;8601;48.718;8.992;2023-02-28T08:41:05;9.80;;;8.63;;
16969;SDS011;8601;48.718;8.992;2023-02-28T08:43:34;11.43;;;9.30;;
16969;SDS011;8601;48.718;8.992;2023-02-28T08:46:01;9.83;;;8.83;;
16969;SDS011;8601;48.718;8.992;2023-02-28T08:48:29;9.83;;;8.77;;
16969;SDS011;8601;48.718;8.992;2023-02-28T08:50:57;10.53;;;9.33;;
16969;SDS011;8601;48.718;8.992;2023-02-28T08:53:26;9.77;;;8.77;;
16969;SDS011;8601;48.718;8.992;2023-02-28T08:55:56;9.47;;;8.57;;
16969;SDS011;8601;48.718;8.992;2023-02-28T08:58:24;10.77;;;9.17;;
16969;SDS011;8601;48.718;8.992;2023-02-28T09:03:42;10.50;;;9.40;;
16969;SDS011;8601;48.718;8.992;2023-02-28T09:06:11;11.80;;;9.60;;
16969;SDS011;8601;48.718;8.992;2023-02-28T09:08:40;14.90;;;10.97;;
16969;SDS011;8601;48.718;8.992;2023-02-28T09:11:09;10.07;;;9.07;;
16969;SDS011;8601;48.718;8.992;2023-02-28T09:13:37;10.00;;;8.47;;
16969;SDS011;8601;48.718;8.992;2023-02-28T09:16:05;15.33;;;8.77;;
16969;SDS011;8601;48.718;8.992;2023-02-28T09:18:34;10.10;;;8.90;;
16969;SDS011;8601;48.718;8.992;2023-02-28T09:21:02;11.00;;;9.77;;
16969;SDS011;8601;48.718;8.992;2023-02-28T09:23:30;11.00;;;9.43;;
16969;SDS011;8601;48.718;8.992;2023-02-28T09:25:58;9.77;;;8.80;;
16969;SDS011;8601;48.718;8.992;2023-02-28T09:28:25;9.13;;;8.27;;
16969;SDS011;8601;48.718;8.992;2023-02-28T09:30:53;9.60;;;8.60;;
16969;SDS011;8601;48.718;8.992;2023-02-28T09:33:21;10.53;;;8.87;;
16969;SDS011;8601;48.718;8.992;2023-02-28T09:35:48;9.90;;;8.87;;
16969;SDS011;8601;48.718;8.992;2023-02-28T09:38:16;10.43;;;9.00;;
16969;SDS011;8601;48.718;8.992;2023-02-28T09:40:46;11.80;;;9.50;;
16969;SDS011;8601;48.718;8.992;2023-02-28T09:43:17;9.80;;;8.90;;
16969;SDS011;8601;48.718;8.992;2023-02-28T09:45:47;9.63;;;8.33;;
16969;SDS011;8601;48.718;8.992;2023-02-28T09:48:29;9.83;;;8.80;;
16969;SDS011;8601;48.718;8.992;2023-02-28T09:51:00;11.37;;;9.13;;
16969;SDS011;8601;48.718;8.992;2023-02-28T09:53:30;9.70;;;8.00;;
16969;SDS011;8601;48.718;8.992;2023-02-28T09:55:59;8.50;;;6.87;;
16969;SDS011;8601;48.718;8.992;2023-02-28T09:58:36;11.33;;;9.63;;
16969;SDS011;8601;48.718;8.992;2023-02-28T10:01:09;7.87;;;6.97;;
16969;SDS011;8601;48.718;8.992;2023-02-28T10:03:44;10.80;;;9.23;;
16969;SDS011;8601;48.718;8.992;2023-02-28T10:06:17;9.67;;;8.67;;
16969;SDS011;8601;48.718;8.992;2023-02-28T10:08:48;10.77;;;9.00;;
16969;SDS011;8601;48.718;8.992;2023-02-28T10:11:21;11.23;;;9.33;;
16969;SDS011;8601;48.718;8.992;2023-02-28T10:14:00;10.23;;;9.13;;
16969;SDS011;8601;48.718;8.992;2023-02-28T10:16:31;10.23;;;9.23;;
16969;SDS011;8601;48.718;8.992;2023-02-28T10:19:03;10.30;;;9.13;;
16969;SDS011;8601;48.718;8.992;2023-02-28T10:21:36;10.47;;;9.37;;
16969;SDS011;8601;48.718;8.992;2023-02-28T10:24:11;9.87;;;8.30;;
16969;SDS011;8601;48.718;8.992;2023-02-28T10:26:45;9.90;;;8.90;;
16969;SDS011;8601;48.718;8.992;2023-02-28T10:29:15;10.87;;;9.40;;
16969;SDS011;8601;48.718;8.992;2023-02-28T10:31:42;10.50;;;8.97;;
16969;SDS011;8601;48.718;8.992;2023-02-28T10:34:10;13.83;;;11.67;;
16969;SDS011;8601;48.718;8.992;2023-02-28T10:36:39;14.77;;;10.20;;
16969;SDS011;8601;48.718;8.992;2023-02-28T10:42:01;11.60;;;9.77;;
16969;SDS011;8601;48.718;8.992;2023-02-28T10:44:30;11.67;;;9.60;;
16969;SDS011;8601;48.718;8.992;2023-02-28T10:46:57;10.30;;;9.10;;
16969;SDS011;8601;48.718;8.992;2023-02-28T10:49:25;10.87;;;9.77;;
16969;SDS011;8601;48.718;8.992;2023-02-28T10:51:54;11.40;;;9.20;;
16969;SDS011;8601;48.718;8.992;2023-02-28T10:54:24;10.80;;;9.70;;
16969;SDS011;8601;48.718;8.992;2023-02-28T10:59:52;9.80;;;8.80;;
16969;SDS011;8601;48.718;8.992;2023-02-28T11:02:33;10.37;;;9.33;;
16969;SDS011;8601;48.718;8.992;2023-02-28T11:05:02;10.50;;;8.93;;
16969;SDS011;8601;48.718;8.992;2023-02-28T11:07:50;10.43;;;8.53;;
16969;SDS011;8601;48.718;8.992;2023-02-28T11:10:18;9.90;;;8.50;;
16969;SDS011;8601;48.718;8.992;2023-02-28T11:12:47;10.77;;;8.70;;
16969;SDS011;8601;48.718;8.992;2023-02-28T11:15:21;9.77;;;8.70;;
16969;SDS011;8601;48.718;8.992;2023-02-28T11:17:54;11.10;;;9.93;;
16969;SDS011;8601;48.718;8.992;2023-02-28T11:20:23;10.13;;;8.97;;
16969;SDS011;8601;48.718;8.992;2023-02-28T11:22:53;13.27;;;9.00;;
16969;SDS011;8601;48.718;8.992;2023-02-28T11:25:21;11.40;;;9.57;;
16969;SDS011;8601;48.718;8.992;2023-02-28T11:27:57;9.67;;;8.67;;
16969;SDS011;8601;48.718;8.992;2023-02-28T11:30:32;10.67;;;9.57;;
16969;SDS011;8601;48.718;8.992;2023-02-28T11:33:23;10.97;;;9.40;;
16969;SDS011;8601;48.718;8.992;2023-02-28T11:36:16;11.20;;;9.53;;
16969;SDS011;8601;48.718;8.992;2023-02-28T11:39:12;10.80;;;9.50;;
16969;SDS011;8601;48.718;8.992;2023-02-28T11:45:15;10.13;;;9.00;;
16969;SDS011;8601;48.718;8.992;2023-02-28T11:48:12;10.23;;;8.60;;
16969;SDS011;8601;48.718;8.992;2023-02-28T11:50:56;10.60;;;9.50;;
16969;SDS011;8601;48.718;8.992;2023-02-28T11:53:47;10.43;;;9.37;;
16969;SDS011;8601;48.718;8.992;2023-02-28T11:56:49;10.30;;;9.30;;
16969;SDS011;8601;48.718;8.992;2023-02-28T11:59:49;10.80;;;9.20;;
16969;SDS011;8601;48.718;8.992;2023-02-28T12:02:33;10.40;;;9.40;;
16969;SDS011;8601;48.718;8.992;2023-02-28T12:05:18;10.37;;;9.13;;
16969;SDS011;8601;48.718;8.992;2023-02-28T12:07:57;10.07;;;9.07;;
16969;SDS011;8601;48.718;8.992;2023-02-28T12:10:30;11.13;;;8.67;;
16969;SDS011;8601;48.718;8.992;2023-02-28T12:13:12;10.23;;;9.00;;
16969;SDS011;8601;48.718;8.992;2023-02-28T12:16:01;9.93;;;8.90;;
16969;SDS011;8601;48.718;8.992;2023-02-28T12:18:52;12.53;;;9.53;;
16969;SDS011;8601;48.718;8.992;2023-02-28T12:21:31;11.20;;;9.33;;
16969;SDS011;8601;48.718;8.992;2023-02-28T12:27:05;10.17;;;9.17;;
16969;SDS011;8601;48.718;8.992;2023-02-28T12:29:56;9.80;;;8.40;;
16969;SDS011;8601;48.718;8.992;2023-02-28T12:32:29;9.57;;;8.57;;
16969;SDS011;8601;48.718;8.992;2023-02-28T12:35:01;10.13;;;9.13;;
16969;SDS011;8601;48.718;8.992;2023-02-28T12:37:33;10.37;;;8.50;;
16969;SDS011;8601;48.718;8.992;2023-02-28T12:40:08;9.57;;;8.67;;
16969;SDS011;8601;48.718;8.992;2023-02-28T12:42:39;9.80;;;8.80;;
16969;SDS011;8601;48.718;8.992;2023-02-28T12:45:10;10.10;;;9.03;;
16969;SDS011;8601;48.718;8.992;2023-02-28T12:47:40;11.73;;;9.13;;
16969;SDS011;8601;48.718;8.992;2023-02-28T12:50:11;9.97;;;9.07;;
16969;SDS011;8601;48.718;8.992;2023-02-28T12:52:41;10.60;;;9.50;;
16969;SDS011;8601;48.718;8.992;2023-02-28T12:55:18;9.67;;;8.70;;
16969;SDS011;8601;48.718;8.992;2023-02-28T12:57:55;9.57;;;8.27;;
16969;SDS011;8601;48.718;8.992;2023-02-28T13:00:33;10.33;;;9.10;;
16969;SDS011;8601;48.718;8.992;2023-02-28T13:06:13;9.87;;;8.53;;
16969;SDS011;8601;48.718;8.992;2023-02-28T13:09:06;9.80;;;8.70;;
16969;SDS011;8601;48.718;8.992;2023-02-28T13:11:40;9.83;;;8.83;;
16969;SDS011;8601;48.718;8.992;2023-02-28T13:14:16;9.83;;;8.33;;
16969;SDS011;8601;48.718;8.992;2023-02-28T13:16:50;10.00;;;9.00;;
16969;SDS011;8601;48.718;8.992;2023-02-28T13:19:22;9.20;;;8.30;;
16969;SDS011;8601;48.718;8.992;2023-02-28T13:22:00;9.47;;;8.57;;
16969;SDS011;8601;48.718;8.992;2023-02-28T13:27:31;8.70;;;7.77;;
16969;SDS011;8601;48.718;8.992;2023-02-28T13:30:00;9.07;;;8.17;;
16969;SDS011;8601;48.718;8.992;2023-02-28T13:32:35;9.20;;;8.30;;
16969;SDS011;8601;48.718;8.992;2023-02-28T13:44:16;9.37;;;8.47;;
16969;SDS011;8601;48.718;8.992;2023-02-28T13:49:51;9.20;;;8.03;;
16969;SDS011;8601;48.718;8.992;2023-02-28T13:52:20;9.90;;;8.70;;
16969;SDS011;8601;48.718;8.992;2023-02-28T13:54:55;9.73;;;8.83;;
16969;SDS011;8601;48.718;8.992;2023-02-28T13:57:57;9.60;;;8.60;;
16969;SDS011;8601;48.718;8.992;2023-02-28T14:00:43;10.43;;;8.50;;
16969;SDS011;8601;48.718;8.992;2023-02-28T14:03:30;9.97;;;8.33;;
16969;SDS011;8601;48.718;8.992;2023-02-28T14:06:16;9.57;;;8.57;;
16969;SDS011;8601;48.718;8.992;2023-02-28T14:08:52;9.47;;;8.57;;
16969;SDS011;8601;48.718;8.992;2023-02-28T14:11:29;9.73;;;8.70;;
16969;SDS011;8601;48.718;8.992;2023-02-28T14:13:58;9.33;;;8.37;;
16969;SDS011;8601;48.718;8.992;2023-02-28T14:16:27;9.60;;;8.47;;
16969;SDS011;8601;48.718;8.992;2023-02-28T14:19:05;9.50;;;8.50;;
16969;SDS011;8601;48.718;8.992;2023-02-28T14:21:43;9.73;;;8.73;;
16969;SDS011;8601;48.718;8.992;2023-02-28T14:24:25;9.50;;;8.60;;
16969;SDS011;8601;48.718;8.992;2023-02-28T14:27:15;10.50;;;9.47;;
16969;SDS011;8601;48.718;8.992;2023-02-28T14:32:45;9.00;;;8.10;;
16969;SDS011;8601;48.718;8.992;2023-02-28T14:35:20;9.43;;;8.43;;
16969;SDS011;8601;48.718;8.992;2023-02-28T14:38:02;9.37;;;8.33;;
16969;SDS011;8601;48.718;8.992;2023-02-28T14:40:32;9.67;;;8.67;;
16969;SDS011;8601;48.718;8.992;2023-02-28T14:43:02;10.93;;;9.43;;
16969;SDS011;8601;48.718;8.992;2023-02-28T14:45:31;8.90;;;8.00;;
16969;SDS011;8601;48.718;8.992;2023-02-28T14:48:01;9.83;;;8.23;;
16969;SDS011;8601;48.718;8.992;2023-02-28T14:50:31;8.70;;;7.90;;
16969;SDS011;8601;48.718;8.992;2023-02-28T14:53:00;10.07;;;8.87;;
16969;SDS011;8601;48.718;8.992;2023-02-28T14:55:28;9.67;;;8.70;;
16969;SDS011;8601;48.718;8.992;2023-02-28T14:57:57;8.77;;;7.50;;
16969;SDS011;8601;48.718;8.992;2023-02-28T15:00:35;8.80;;;8.00;;
16969;SDS011;8601;48.718;8.992;2023-02-28T15:03:18;9.63;;;8.27;;
16969;SDS011;8601;48.718;8.992;2023-02-28T15:05:53;9.03;;;8.13;;
16969;SDS011;8601;48.718;8.992;2023-02-28T15:08:23;8.43;;;7.63;;
16969;SDS011;8601;48.718;8.992;2023-02-28T15:10:51;9.53;;;8.53;;
16969;SDS011;8601;48.718;8.992;2023-02-28T15:13:20;10.03;;;8.97;;
16969;SDS011;8601;48.718;8.992;2023-02-28T15:15:49;9.17;;;8.07;;
16969;SDS011;8601;48.718;8.992;2023-02-28T15:18:33;10.63;;;8.80;;
16969;SDS011;8601;48.718;8.992;2023-02-28T15:21:07;10.07;;;8.43;;
16969;SDS011;8601;48.718;8.992;2023-02-28T15:23:38;10.13;;;8.30;;
16969;SDS011;8601;48.718;8.992;2023-02-28T15:26:09;9.27;;;8.37;;
16969;SDS011;8601;48.718;8.992;2023-02-28T15:28:39;9.17;;;8.33;;
16969;SDS011;8601;48.718;8.992;2023-02-28T15:31:23;10.10;;;8.20;;
16969;SDS011;8601;48.718;8.992;2023-02-28T15:33:55;9.40;;;8.47;;
16969;SDS011;8601;48.718;8.992;2023-02-28T15:36:24;8.63;;;7.83;;
16969;SDS011;8601;48.718;8.992;2023-02-28T15:38:54;8.70;;;7.80;;
16969;SDS011;8601;48.718;8.992;2023-02-28T15:41:24;8.93;;;8.03;;
16969;SDS011;8601;48.718;8.992;2023-02-28T15:46:59;10.63;;;8.53;;
16969;SDS011;8601;48.718;8.992;2023-02-28T15:49:40;8.93;;;8.10;;
16969;SDS011;8601;48.718;8.992;2023-02-28T15:52:14;9.47;;;8.57;;
16969;SDS011;8601;48.718;8.992;2023-02-28T15:54:44;9.73;;;8.73;;
16969;SDS011;8601;48.718;8.992;2023-02-28T15:57:13;9.40;;;8.43;;
16969;SDS011;8601;48.718;8.992;2023-02-28T15:59:49;9.67;;;8.40;;
16969;SDS011;8601;48.718;8.992;2023-02-28T16:02:19;9.43;;;8.47;;
16969;SDS011;8601;48.718;8.992;2023-02-28T16:04:57;8.90;;;8.00;;
16969;SDS011;8601;48.718;8.992;2023-02-28T16:07:43;8.53;;;7.63;;
16969;SDS011;8601;48.718;8.992;2023-02-28T16:10:20;9.03;;;7.93;;
16969;SDS011;8601;48.718;8.992;2023-02-28T16:15:22;10.30;;;9.30;;
16969;SDS011;8601;48.718;8.992;2023-02-28T16:17:52;9.80;;;8.33;;
16969;SDS011;8601;48.718;8.992;2023-02-28T16:20:29;9.23;;;8.23;;
16969;SDS011;8601;48.718;8.992;2023-02-28T16:23:03;9.07;;;8.17;;
16969;SDS011;8601;48.718;8.992;2023-02-28T16:25:33;9.47;;;8.47;;
16969;SDS011;8601;48.718;8.992;2023-02-28T16:28:03;10.03;;;7.93;;
16969;SDS011;8601;48.718;8.992;2023-02-28T16:30:34;10.13;;;9.10;;
16969;SDS011;8601;48.718;8.992;2023-02-28T16:33:02;14.37;;;8.90;;
16969;SDS011;8601;48.718;8.992;2023-02-28T16:35:30;7.17;;;6.50;;
16969;SDS011;8601;48.718;8.992;2023-02-28T16:38:00;9.97;;;8.83;;
16969;SDS011;8601;48.718;8.992;2023-02-28T16:40:29;10.87;;;9.20;;
16969;SDS011;8601;48.718;8.992;2023-02-28T16:43:04;11.37;;;9.80;;
16969;SDS011;8601;48.718;8.992;2023-02-28T16:45:40;10.53;;;9.30;;
16969;SDS011;8601;48.718;8.992;2023-02-28T16:48:07;9.77;;;8.77;;
16969;SDS011;8601;48.718;8.992;2023-02-28T16:50:41;10.60;;;9.10;;
16969;SDS011;8601;48.718;8.992;2023-02-28T16:53:09;9.90;;;8.83;;
16969;SDS011;8601;48.718;8.992;2023-02-28T16:55:36;11.53;;;10.33;;
16969;SDS011;8601;48.718;8.992;2023-02-28T16:58:03;10.33;;;9.23;;